Terminal Aerodrome Forecast
Issued by NWS Charleston, WV

Home | Current Version | Previous Version | Text Only | Print | Product List | Glossary On
Versions: 1 2 3 4 5 6 7 8 9 10 11 12 13 14 15 16 17 18 19 20 21 22 23
000
FTUS41 KRLX 100317 AAA
TAFEKN
TAF AMD
KEKN 100317Z 1003/1024 27005KT P6SM OVC030
     FM101300 28007KT P6SM SCT035
     FM102200 28005KT P6SM BKN080=

USA.gov is the U.S. government's official web portal to all federal, state and local government web resources and services.